Aviation Digital Data Service (ADDS)

Output produced by METARs form (0400 UTC 26 November 2014)
found at http://aviationweather.gov/adds/metars/
 
KORH 252327Z 2600/2624 25010KT P6SM BKN250 
     FM260700 29007KT P6SM OVC200 
     FM261100 34004KT 2SM -RASN OVC090 
     FM261300 36004KT 1SM -SN OVC050 
     FM261700 02009KT 1/4SM +SN OVC008 
     FM262100 03012G23KT 1/4SM +SN OVC003